Time;durP1;ratioP1;P1;durP2;ratioP2;P2;SDS_P1;SDS_P2;PMS_P1;PMS_P2;Temp;Humidity;BMP_temperature;BMP_pressure;BME280_temperature;BME280_humidity;BME280_pressure;Samples;Min_cycle;Max_cycle;Signal;HPM_P1;HPM_P2
2022/09/22 00:01:25;;;;;;;26.70;14.70;;;;;;;7.68;93.85;98911.53;105790;1277;23964;-73
2022/09/22 00:04:00;;;;;;;27.80;14.90;;;;;;;7.65;93.52;98911.76;105998;1277;138731;-72
2022/09/22 00:06:37;;;;;;;23.60;14.60;;;;;;;7.64;93.51;98910.34;105825;1277;25561;-70
2022/09/22 00:09:06;;;;;;;21.50;13.00;;;;;;;7.62;93.71;98907.72;105894;1277;25468;-70
2022/09/22 00:11:43;;;;;;;20.20;13.20;;;;;;;7.60;93.41;98914.65;105745;1275;137857;-72
2022/09/22 00:14:20;;;;;;;23.80;13.10;;;;;;;7.57;93.31;98917.88;105819;1274;25325;-70
2022/09/22 00:17:02;;;;;;;21.30;12.90;;;;;;;7.57;93.56;98921.42;105847;1277;137977;-70
2022/09/22 00:19:35;;;;;;;22.10;13.30;;;;;;;7.54;93.33;98917.14;106048;1277;23512;-71
2022/09/22 00:22:08;;;;;;;22.90;13.40;;;;;;;7.52;93.61;98915.55;105839;1278;138224;-74
2022/09/22 00:24:37;;;;;;;19.60;12.10;;;;;;;7.52;93.94;98916.02;105845;1277;22559;-74
2022/09/22 00:27:03;;;;;;;21.90;13.00;;;;;;;7.51;93.63;98920.33;105849;1277;25439;-70
2022/09/22 00:29:29;;;;;;;16.90;11.60;;;;;;;7.50;93.67;98916.61;105725;1277;137920;-70
2022/09/22 00:31:57;;;;;;;17.40;12.10;;;;;;;7.48;93.81;98916.59;105789;1276;25315;-70
2022/09/22 00:34:26;;;;;;;18.50;11.10;;;;;;;7.47;93.82;98918.52;105705;1277;137796;-72
2022/09/22 00:36:53;;;;;;;15.80;10.80;;;;;;;7.44;93.76;98916.13;105630;1277;22584;-70
2022/09/22 00:39:19;;;;;;;18.20;10.80;;;;;;;7.44;93.80;98921.67;105783;1277;22548;-71
2022/09/22 00:41:50;;;;;;;17.30;10.50;;;;;;;7.40;93.78;98920.48;105792;1277;137720;-71
2022/09/22 00:44:17;;;;;;;17.70;11.40;;;;;;;7.38;94.18;98921.65;105799;1277;22577;-71
2022/09/22 00:46:46;;;;;;;18.20;10.70;;;;;;;7.37;94.00;98916.95;106000;1277;137615;-73
2022/09/22 00:49:14;;;;;;;20.80;11.60;;;;;;;7.36;94.31;98924.66;105765;1277;24232;-70
2022/09/22 00:51:43;;;;;;;17.70;11.30;;;;;;;7.32;93.97;98927.89;105775;1277;139067;-70
2022/09/22 00:54:13;;;;;;;;;;;;;;;7.29;93.92;98918.67;105872;1277;22535;-73
2022/09/22 00:57:04;;;;;;;16.30;11.00;;;;;;;7.25;94.06;98919.02;106058;1277;24433;-71
2022/09/22 00:59:30;;;;;;;18.50;11.80;;;;;;;7.22;94.32;98919.31;105916;1277;137484;-71
2022/09/22 01:01:57;;;;;;;19.20;11.80;;;;;;;7.20;94.29;98916.70;105877;1277;24274;-71
2022/09/22 01:04:24;;;;;;;20.10;11.30;;;;;;;7.18;94.24;98918.08;105859;1277;137756;-70
2022/09/22 01:06:52;;;;;;;17.80;11.00;;;;;;;7.17;94.51;98922.02;105852;1277;23936;-70
2022/09/22 01:09:20;;;;;;;17.70;11.20;;;;;;;7.15;94.33;98920.67;105840;1277;23934;-70
2022/09/22 01:11:46;;;;;;;19.40;11.10;;;;;;;7.13;94.39;98919.29;105821;1274;137387;-71
2022/09/22 01:14:20;;;;;;;21.90;12.00;;;;;;;7.12;94.41;98923.63;105799;1277;25568;-70
2022/09/22 01:17:09;;;;;;;18.00;11.10;;;;;;;7.10;94.16;98927.13;105689;1275;137882;-70
2022/09/22 01:20:14;;;;;;;21.90;11.60;;;;;;;7.07;94.05;98937.13;105796;1277;25714;-71
2022/09/22 01:23:01;;;;;;;18.80;11.10;;;;;;;7.03;94.22;98940.55;105742;1277;137623;-70
2022/09/22 01:25:40;;;;;;;16.80;11.30;;;;;;;7.00;93.91;98939.19;105865;1277;23197;-71
2022/09/22 01:28:24;;;;;;;16.20;10.20;;;;;;;6.97;94.16;98940.64;105685;1277;138056;-71
2022/09/22 01:30:59;;;;;;;16.90;11.00;;;;;;;6.94;94.13;98939.66;105853;1277;22561;-70
2022/09/22 01:33:42;;;;;;;18.60;10.60;;;;;;;6.94;94.58;98942.36;105863;1277;24409;-71
2022/09/22 01:36:08;;;;;;;19.80;11.00;;;;;;;6.93;94.21;98936.14;105687;1277;22574;-70
2022/09/22 01:38:52;;;;;;;20.10;11.60;;;;;;;6.93;94.65;98934.77;105827;1275;22697;-73
2022/09/22 01:41:35;;;;;;;17.00;10.90;;;;;;;6.94;94.97;98932.98;105769;1276;138175;-71
2022/09/22 01:44:09;;;;;;;17.30;11.20;;;;;;;6.97;95.29;98931.98;105866;1277;22561;-70
2022/09/22 01:46:40;;;;;;;25.10;12.00;;;;;;;7.00;95.31;98927.35;105764;1277;137519;-73
2022/09/22 01:49:10;;;;;;;18.80;11.60;;;;;;;7.02;95.57;98924.77;105833;1277;22559;-72
2022/09/22 01:51:57;;;;;;;21.10;11.90;;;;;;;7.04;95.08;98920.02;105825;1277;138350;-71
2022/09/22 01:54:44;;;;;;;18.80;11.80;;;;;;;7.04;95.44;98917.44;105798;1277;24299;-71
2022/09/22 01:57:17;;;;;;;19.50;12.00;;;;;;;7.04;95.34;98916.73;105736;1277;22579;-71
2022/09/22 01:59:48;;;;;;;17.70;11.10;;;;;;;7.04;95.27;98914.86;105824;1276;137397;-71
2022/09/22 02:02:26;;;;;;;20.30;13.10;;;;;;;7.01;95.20;98913.16;105818;1276;24286;-71
2022/09/22 02:04:57;;;;;;;21.80;12.40;;;;;;;7.00;95.08;98909.78;105731;1276;137737;-71
2022/09/22 02:07:31;;;;;;;19.80;11.70;;;;;;;6.99;95.18;98909.40;105751;1276;22697;-71
2022/09/22 02:10:01;;;;;;;36.60;14.20;;;;;;;6.98;95.27;98908.95;105638;1277;137802;-71
2022/09/22 02:12:27;;;;;;;23.00;13.70;;;;;;;6.98;95.40;98910.77;105818;1277;22541;-72
2022/09/22 02:14:54;;;;;;;19.70;13.10;;;;;;;6.96;95.16;98909.73;105687;1277;22565;-71
2022/09/22 02:17:20;;;;;;;22.40;12.90;;;;;;;6.95;95.08;98912.62;105500;1277;137604;-71
2022/09/22 02:19:46;;;;;;;18.30;11.70;;;;;;;6.94;95.13;98914.54;105921;1276;22568;-71
2022/09/22 02:22:12;;;;;;;22.80;12.70;;;;;;;6.92;95.07;98915.36;105635;1276;137942;-71
2022/09/22 02:24:42;;;;;;;21.70;13.00;;;;;;;6.90;95.11;98914.08;105856;1276;25501;-71
2022/09/22 02:27:25;;;;;;;19.40;12.90;;;;;;;6.88;94.94;98914.49;105814;1276;23070;-71
2022/09/22 02:30:02;;;;;;;23.70;13.30;;;;;;;6.86;94.90;98911.88;105862;1277;138083;-71
2022/09/22 02:32:29;;;;;;;20.80;12.30;;;;;;;6.84;94.92;98914.63;105835;1277;25541;-72
2022/09/22 02:34:56;;;;;;;22.30;13.20;;;;;;;6.82;94.91;98913.41;105817;1277;137878;-71
2022/09/22 02:37:45;;;;;;;22.50;13.00;;;;;;;6.80;94.95;98911.73;105761;1277;24586;-71
2022/09/22 02:40:29;;;;;;;20.00;12.30;;;;;;;6.77;94.79;98910.34;104878;1283;137781;-71
2022/09/22 02:43:04;;;;;;;22.50;12.90;;;;;;;6.74;94.77;98908.46;105186;1283;25265;-71
2022/09/22 02:45:59;;;;;;;23.00;13.60;;;;;;;6.71;94.92;98910.27;105086;1283;138460;-71
2022/09/22 02:48:34;;;;;;;30.80;14.30;;;;;;;6.68;95.09;98912.80;105244;1281;24320;-71
2022/09/22 02:51:01;;;;;;;25.70;14.10;;;;;;;6.65;95.02;98912.63;105226;1283;25365;-71
2022/09/22 02:53:27;;;;;;;24.50;14.10;;;;;;;6.63;95.09;98913.89;105192;1281;138554;-71
2022/09/22 02:55:53;;;;;;;21.20;12.80;;;;;;;6.60;95.38;98914.96;105286;1281;22577;-71
2022/09/22 02:58:19;;;;;;;24.00;14.10;;;;;;;6.58;95.31;98913.98;105269;1281;138288;-72
2022/09/22 03:00:45;;;;;;;25.10;14.40;;;;;;;6.57;95.36;98913.59;104976;1283;22564;-71
2022/09/22 03:03:11;;;;;;;25.50;14.90;;;;;;;6.57;95.62;98912.34;105150;1283;22559;-71
2022/09/22 03:05:38;;;;;;;24.50;13.70;;;;;;;6.57;95.80;98913.62;104874;1283;138380;-71
2022/09/22 03:08:04;;;;;;;22.70;13.70;;;;;;;6.56;95.62;98914.52;105195;1283;23654;-71
2022/09/22 03:10:31;;;;;;;22.90;13.60;;;;;;;6.56;95.68;98915.80;105065;1283;138327;-72
2022/09/22 03:12:57;;;;;;;23.60;14.50;;;;;;;6.56;95.86;98923.29;105267;1281;25439;-73
2022/09/22 03:15:23;;;;;;;24.80;14.40;;;;;;;6.57;95.96;98919.17;105324;1281;24354;-71
2022/09/22 03:17:49;;;;;;;23.80;14.00;;;;;;;6.58;96.08;98918.71;105367;1276;138215;-71
2022/09/22 03:20:15;;;;;;;23.70;14.40;;;;;;;6.58;96.09;98917.42;105660;1277;22565;-74
2022/09/22 03:22:42;;;;;;;24.50;13.70;;;;;;;6.59;96.37;98915.80;105578;1277;139047;-73
2022/09/22 03:25:09;;;;;;;23.90;13.80;;;;;;;6.61;96.25;98917.00;105877;1277;25663;-73
2022/09/22 03:27:36;;;;;;;33.00;14.70;;;;;;;6.62;96.00;98917.08;105714;1277;138233;-72
2022/09/22 03:30:05;;;;;;;27.40;14.50;;;;;;;6.62;96.19;98918.09;105950;1277;22980;-73
2022/09/22 03:32:31;;;;;;;27.50;15.80;;;;;;;6.65;96.34;98918.14;105926;1277;25385;-72
2022/09/22 03:34:58;;;;;;;26.70;14.50;;;;;;;6.68;96.32;98919.20;105748;1277;138135;-73
2022/09/22 03:37:24;;;;;;;24.30;14.10;;;;;;;6.71;96.23;98919.38;105905;1277;22571;-73
2022/09/22 03:39:50;;;;;;;25.10;13.80;;;;;;;6.72;96.19;98921.92;105646;1277;139368;-73
2022/09/22 03:42:16;;;;;;;24.50;13.60;;;;;;;6.74;96.31;98925.70;105510;1277;25451;-73
2022/09/22 03:44:42;;;;;;;25.70;14.50;;;;;;;6.76;96.32;98926.58;105683;1277;22551;-73
2022/09/22 03:47:09;;;;;;;27.10;14.20;;;;;;;6.78;96.28;98924.70;105511;1277;139376;-73
2022/09/22 03:49:35;;;;;;;22.50;14.20;;;;;;;6.80;96.41;98925.30;105669;1277;24384;-71
2022/09/22 03:52:01;;;;;;;24.20;14.70;;;;;;;6.82;96.34;98925.88;105500;1277;138026;-71
2022/09/22 03:54:27;;;;;;;24.70;14.40;;;;;;;6.85;96.24;98929.16;105552;1277;22564;-72
2022/09/22 03:56:54;;;;;;;25.60;14.40;;;;;;;6.85;96.24;98925.66;105906;1277;24292;-73
2022/09/22 03:59:20;;;;;;;25.00;14.20;;;;;;;6.85;95.98;98929.69;105502;1277;137772;-71
2022/09/22 04:01:46;;;;;;;24.80;14.30;;;;;;;6.87;96.46;98925.50;105692;1277;25391;-73
2022/09/22 04:04:12;;;;;;;28.70;15.20;;;;;;;6.88;96.37;98927.54;105724;1277;138242;-73
2022/09/22 04:06:38;;;;;;;21.10;12.60;;;;;;;6.85;96.13;98925.17;105683;1277;24122;-73
2022/09/22 04:09:04;;;;;;;22.10;13.10;;;;;;;6.82;96.36;98925.16;105710;1277;23930;-73
2022/09/22 04:11:31;;;;;;;24.40;13.20;;;;;;;6.79;96.13;98923.92;105559;1277;138175;-73
2022/09/22 04:13:58;;;;;;;25.60;15.20;;;;;;;6.80;96.41;98924.59;105807;1277;24417;-73
2022/09/22 04:16:24;;;;;;;30.50;14.40;;;;;;;6.80;96.82;98926.88;105726;1277;138003;-71
2022/09/22 04:18:50;;;;;;;26.40;14.90;;;;;;;6.83;96.84;98928.87;105835;1276;24319;-73
2022/09/22 04:21:17;;;;;;;28.90;14.70;;;;;;;6.83;96.78;98928.16;106356;1276;25240;-71
2022/09/22 04:23:43;;;;;;;26.30;15.50;;;;;;;6.85;96.68;98927.04;106022;1277;138074;-71
2022/09/22 04:26:09;;;;;;;25.80;14.10;;;;;;;6.87;97.00;98927.04;105878;1277;22587;-71
2022/09/22 04:28:35;;;;;;;30.60;14.20;;;;;;;6.89;96.67;98933.45;105686;1277;138121;-71
2022/09/22 04:31:01;;;;;;;28.30;14.40;;;;;;;6.90;97.03;98927.33;106114;1277;22564;-72
2022/09/22 04:33:27;;;;;;;27.30;14.40;;;;;;;6.93;97.09;98932.56;105972;1277;22602;-71
2022/09/22 04:35:54;;;;;;;26.30;14.20;;;;;;;6.93;96.68;98934.69;105936;1277;25337;-71
2022/09/22 04:38:20;;;;;;;26.50;13.60;;;;;;;6.93;96.35;98936.94;105836;1277;25807;-71
2022/09/22 04:40:48;;;;;;;23.20;13.00;;;;;;;6.94;96.90;98935.86;105611;1277;138029;-72
2022/09/22 04:43:14;;;;;;;25.10;13.90;;;;;;;6.96;96.70;98936.27;105793;1277;21898;-71
2022/09/22 04:45:44;;;;;;;24.00;14.00;;;;;;;6.98;96.68;98934.61;105617;1278;138892;-71
2022/09/22 04:48:11;;;;;;;20.30;11.50;;;;;;;6.99;96.67;98939.27;105800;1277;22556;-71
2022/09/22 04:50:37;;;;;;;22.70;10.90;;;;;;;7.00;96.77;98942.56;105933;1277;22604;-71
2022/09/22 04:53:06;;;;;;;22.60;11.10;;;;;;;7.02;96.96;98942.64;105913;1277;138123;-71
2022/09/22 04:55:32;;;;;;;18.70;10.70;;;;;;;7.04;96.94;98941.71;106278;1277;24231;-70
2022/09/22 04:57:59;;;;;;;23.10;11.60;;;;;;;7.07;97.03;98941.94;106021;1277;138594;-70
2022/09/22 05:00:27;;;;;;;16.50;10.20;;;;;;;7.10;97.23;98938.13;105601;1276;22572;-71
2022/09/22 05:02:53;;;;;;;19.50;10.80;;;;;;;7.14;97.02;98937.34;106757;1274;24115;-71
2022/09/22 05:05:22;;;;;;;21.10;10.30;;;;;;;7.17;97.55;98939.71;105956;1276;137931;-71
2022/09/22 05:07:53;;;;;;;21.40;10.50;;;;;;;7.22;97.43;98935.94;106021;1276;22552;-70
2022/09/22 05:10:23;;;;;;;22.40;12.30;;;;;;;7.26;97.38;98936.55;106465;1276;138392;-71
2022/09/22 05:12:54;;;;;;;21.10;10.50;;;;;;;7.30;97.35;98933.96;106021;1277;23929;-70
2022/09/22 05:15:21;;;;;;;20.30;10.60;;;;;;;7.32;97.12;98936.73;106633;1277;22732;-71
2022/09/22 05:17:50;;;;;;;15.50;8.40;;;;;;;7.34;97.05;98941.96;106228;1277;137811;-71
2022/09/22 05:20:17;;;;;;;18.90;9.30;;;;;;;7.34;97.02;98943.96;106452;1277;22853;-71
2022/09/22 05:22:44;;;;;;;17.90;8.90;;;;;;;7.34;97.33;98942.13;105736;1276;138405;-70
2022/09/22 05:25:14;;;;;;;20.50;11.10;;;;;;;7.35;97.34;98941.75;105727;1276;25325;-70
2022/09/22 05:27:47;;;;;;;;;;;;;;;7.38;97.87;98939.52;105745;1276;138282;-70
2022/09/22 05:30:13;;;;;;;22.80;10.10;;;;;;;7.40;97.59;98939.82;105923;1276;25375;-70
2022/09/22 05:32:44;;;;;;;22.40;10.90;;;;;;;7.45;97.86;98940.44;105716;1276;22557;-73
2022/09/22 05:35:12;;;;;;;20.90;9.30;;;;;;;7.51;98.11;98943.21;106288;1276;138066;-70
2022/09/22 05:37:42;;;;;;;15.80;8.80;;;;;;;7.55;98.00;98944.23;106306;1276;22651;-71
2022/09/22 05:40:09;;;;;;;14.40;8.30;;;;;;;7.60;97.51;98946.98;105819;1277;138525;-70
2022/09/22 05:42:46;;;;;;;14.30;8.20;;;;;;;7.63;97.62;98949.84;106112;1274;25376;-71
2022/09/22 05:45:14;;;;;;;23.20;8.80;;;;;;;7.68;97.83;98947.86;106252;1274;25282;-71
2022/09/22 05:47:41;;;;;;;14.00;8.30;;;;;;;7.74;97.56;98949.23;106196;1277;138070;-71
2022/09/22 05:50:08;;;;;;;16.30;8.50;;;;;;;7.81;97.85;98943.77;108318;1274;25419;-71
2022/09/22 05:52:34;;;;;;;14.30;7.40;;;;;;;7.87;97.21;98947.16;106134;1276;138380;-72
2022/09/22 05:55:01;;;;;;;13.80;6.30;;;;;;;7.92;97.09;98946.89;106948;1277;22758;-70
2022/09/22 05:57:27;;;;;;;10.50;6.20;;;;;;;7.96;96.34;98950.33;106555;1277;24483;-71
2022/09/22 05:59:54;;;;;;;11.80;6.80;;;;;;;7.97;96.05;98951.38;105879;1277;25257;-71
2022/09/22 06:02:24;;;;;;;15.00;7.80;;;;;;;8.04;96.56;98956.39;106205;1276;24252;-71
2022/09/22 06:04:51;;;;;;;14.30;7.90;;;;;;;8.20;97.53;98956.85;105928;1274;137840;-70
2022/09/22 06:07:19;;;;;;;8.60;5.70;;;;;;;8.30;96.57;98957.84;106001;1276;22644;-70
2022/09/22 06:09:46;;;;;;;10.20;5.30;;;;;;;8.37;95.78;98964.42;105997;1276;137925;-70
2022/09/22 06:12:13;;;;;;;10.40;6.50;;;;;;;8.39;94.33;98964.88;105887;1276;22570;-70
2022/09/22 06:14:39;;;;;;;13.30;5.90;;;;;;;8.35;93.77;98965.73;106278;1275;22381;-70
2022/09/22 06:17:09;;;;;;;11.10;5.60;;;;;;;8.33;94.00;98966.46;105607;1277;138015;-72
2022/09/22 06:19:35;;;;;;;12.70;5.90;;;;;;;8.30;93.70;98965.17;105793;1277;24447;-73
2022/09/22 06:22:01;;;;;;;16.60;6.50;;;;;;;8.27;93.54;98966.08;105896;1277;138107;-70
2022/09/22 06:24:28;;;;;;;10.30;5.10;;;;;;;8.22;93.44;98969.82;105931;1277;22615;-70
2022/09/22 06:26:55;;;;;;;12.00;5.00;;;;;;;8.14;93.23;98970.48;105953;1277;22550;-72
2022/09/22 06:29:21;;;;;;;9.40;5.30;;;;;;;8.07;93.13;98976.15;106081;1277;137864;-69
2022/09/22 06:31:48;;;;;;;15.40;6.60;;;;;;;8.00;93.28;98973.77;105885;1277;24384;-72
2022/09/22 06:34:14;;;;;;;8.50;5.40;;;;;;;7.95;93.91;98967.95;105603;1276;138240;-69
2022/09/22 06:36:44;;;;;;;10.00;5.90;;;;;;;7.95;94.04;98971.08;105998;1276;25284;-70
2022/09/22 06:39:11;;;;;;;7.90;5.00;;;;;;;7.97;94.21;98969.70;105991;1276;25270;-70
2022/09/22 06:41:38;;;;;;;9.90;5.10;;;;;;;8.01;94.26;98968.39;105933;1276;137734;-70
2022/09/22 06:44:05;;;;;;;10.70;5.70;;;;;;;8.05;94.37;98965.69;105864;1277;22578;-70
2022/09/22 06:46:33;;;;;;;12.20;6.10;;;;;;;8.10;94.48;98970.97;105660;1275;138145;-70
2022/09/22 06:48:59;;;;;;;11.40;6.10;;;;;;;8.15;94.98;98970.91;105860;1277;23217;-70
2022/09/22 06:51:29;;;;;;;10.10;6.00;;;;;;;8.23;94.60;98970.74;106028;1275;22659;-70
2022/09/22 06:53:55;;;;;;;7.20;5.10;;;;;;;8.28;93.94;98973.66;106117;1274;22851;-70
2022/09/22 06:56:41;;;;;;;7.40;4.80;;;;;;;8.35;93.43;98974.47;105978;1277;23188;-72
2022/09/22 06:59:36;;;;;;;10.50;5.80;;;;;;;8.45;93.35;98979.23;105770;1277;138026;-70
2022/09/22 07:02:06;;;;;;;8.70;5.20;;;;;;;8.55;93.33;98983.48;106040;1277;25704;-71
2022/09/22 07:04:33;;;;;;;6.40;4.30;;;;;;;8.65;92.30;98980.83;106073;1277;137814;-70
2022/09/22 07:07:01;;;;;;;10.30;5.20;;;;;;;8.75;92.08;98986.17;105996;1277;22596;-71
2022/09/22 07:09:27;;;;;;;9.20;5.10;;;;;;;8.83;91.81;98989.16;106574;1277;22540;-70
2022/09/22 07:11:55;;;;;;;7.10;4.80;;;;;;;8.88;91.57;98989.17;106427;1277;138149;-70
2022/09/22 07:14:21;;;;;;;9.20;5.10;;;;;;;8.89;91.46;98988.92;106371;1276;22628;-71
2022/09/22 07:16:47;;;;;;;7.50;5.10;;;;;;;8.88;90.86;98987.70;105746;1277;137842;-69
2022/09/22 07:19:14;;;;;;;8.20;5.10;;;;;;;8.91;91.11;98987.90;106084;1277;22558;-70
2022/09/22 07:21:40;;;;;;;6.10;4.80;;;;;;;8.92;90.85;98986.59;105803;1277;138448;-70
2022/09/22 07:24:07;;;;;;;9.50;4.80;;;;;;;8.91;90.39;98988.11;105906;1277;24387;-70
2022/09/22 07:26:37;;;;;;;6.10;4.00;;;;;;;8.92;90.70;98987.02;105770;1277;24246;-70
2022/09/22 07:29:07;;;;;;;7.40;4.30;;;;;;;8.94;90.21;98987.29;105648;1277;137735;-72
2022/09/22 07:31:35;;;;;;;7.30;5.10;;;;;;;8.95;90.13;98984.86;105898;1277;22875;-72
2022/09/22 07:34:02;;;;;;;8.80;4.60;;;;;;;8.96;89.91;98986.52;106065;1276;138001;-69
2022/09/22 07:36:30;;;;;;;8.30;5.50;;;;;;;8.93;89.74;98986.66;105895;1277;22553;-69
2022/09/22 07:39:01;;;;;;;5.80;4.50;;;;;;;8.95;89.78;98987.24;106046;1277;24340;-72
2022/09/22 07:41:30;;;;;;;6.10;4.70;;;;;;;8.94;89.57;98985.70;105828;1277;137810;-70
2022/09/22 07:45:11;;;;;;;6.80;3.80;;;;;;;8.99;89.90;98987.54;105942;1275;24489;-70
2022/09/22 07:46:48;;;;;;;8.30;4.60;;;;;;;9.06;89.64;98985.56;105579;1277;137831;-70
2022/09/22 07:49:16;;;;;;;9.10;4.60;;;;;;;9.14;89.73;98985.60;105828;1277;22538;-70
2022/09/22 07:51:42;;;;;;;10.40;4.90;;;;;;;9.29;89.96;98986.20;106071;1277;137925;-70
2022/09/22 07:54:09;;;;;;;8.30;5.10;;;;;;;9.46;89.85;98978.87;105868;1277;22719;-70
2022/09/22 07:56:39;;;;;;;11.10;5.00;;;;;;;9.59;89.58;98975.08;105840;1276;25580;-70
2022/09/22 07:59:10;;;;;;;9.80;4.50;;;;;;;9.73;89.44;98979.88;105702;1277;137804;-72
2022/09/22 08:01:42;;;;;;;7.90;4.60;;;;;;;9.81;88.98;98981.49;105772;1277;22567;-72
2022/09/22 08:04:15;;;;;;;6.80;4.30;;;;;;;9.87;87.73;98985.60;106318;1277;137788;-70
2022/09/22 08:06:42;;;;;;;7.50;4.40;;;;;;;9.92;87.16;98987.73;106657;1274;25386;-70
2022/09/22 08:09:10;;;;;;;8.00;5.50;;;;;;;9.94;86.38;98988.66;106905;1275;22541;-71
2022/09/22 08:11:37;;;;;;;6.20;5.10;;;;;;;9.92;85.99;98991.99;106336;1277;137882;-70
2022/09/22 08:14:06;;;;;;;8.60;5.10;;;;;;;9.93;86.53;98991.19;106428;1274;24217;-69
2022/09/22 08:16:35;;;;;;;8.90;4.60;;;;;;;9.98;86.60;98994.77;106018;1276;137683;-70
2022/09/22 08:19:10;;;;;;;7.10;4.50;;;;;;;10.03;86.47;98991.70;106120;1277;24420;-70
2022/09/22 08:21:38;;;;;;;6.60;4.10;;;;;;;10.08;86.37;98994.73;106267;1276;138155;-70
2022/09/22 08:24:07;;;;;;;5.90;4.20;;;;;;;10.12;85.38;98992.81;106185;1276;24747;-70
2022/09/22 08:26:35;;;;;;;6.30;4.20;;;;;;;10.12;85.39;98997.57;107159;1277;22728;-70
2022/09/22 08:29:03;;;;;;;4.40;3.70;;;;;;;10.15;84.87;99001.61;106254;1274;138414;-72
2022/09/22 08:31:31;;;;;;;4.00;2.90;;;;;;;10.12;84.31;98999.67;106249;1274;139318;-71
2022/09/22 08:33:58;;;;;;;4.00;2.80;;;;;;;10.09;83.16;98998.20;106574;1277;24406;-71
2022/09/22 08:36:28;;;;;;;6.60;3.70;;;;;;;10.11;83.76;98994.70;106660;1277;25339;-70
2022/09/22 08:38:55;;;;;;;7.70;4.20;;;;;;;10.24;84.66;98990.39;105850;1277;138090;-72
2022/09/22 08:41:37;;;;;;;3.50;3.20;;;;;;;10.49;84.79;98987.66;106520;1277;23219;-71
2022/09/22 08:44:07;;;;;;;5.70;4.10;;;;;;;10.74;84.45;98987.36;106178;1277;138104;-71
2022/09/22 08:46:38;;;;;;;4.70;3.70;;;;;;;10.95;83.79;98987.59;106171;1277;31683;-71
2022/09/22 08:52:42;;;;;;;5.80;3.70;;;;;;;11.19;81.76;98987.36;106371;1277;22562;-71
2022/09/22 08:55:19;;;;;;;6.90;3.10;;;;;;;11.26;80.28;98984.89;106090;1277;23056;-70
2022/09/22 08:58:15;;;;;;;6.70;3.20;;;;;;;11.31;80.73;98982.53;105499;1277;137984;-70
2022/09/22 09:00:49;;;;;;;5.50;3.30;;;;;;;11.43;80.80;98980.17;105647;1277;23143;-70
2022/09/22 09:03:41;;;;;;;4.20;2.90;;;;;;;11.52;79.89;98979.64;105772;1277;137806;-70
2022/09/22 09:06:15;;;;;;;4.20;3.00;;;;;;;11.69;79.22;98973.27;105879;1277;24537;-70
2022/09/22 09:09:06;;;;;;;4.10;3.20;;;;;;;11.82;79.06;98969.86;105764;1277;137980;-70
2022/09/22 09:12:17;;;;;;;4.50;3.00;;;;;;;11.94;78.13;98964.66;105858;1277;25272;-70
2022/09/22 09:15:19;;;;;;;3.60;2.40;;;;;;;12.05;77.13;98965.33;104787;1284;142534;-70
2022/09/22 09:17:47;;;;;;;3.90;2.80;;;;;;;12.04;76.04;98962.69;104914;1284;30342;-71
2022/09/22 09:20:37;;;;;;;4.70;2.80;;;;;;;11.98;76.03;98963.83;105226;1284;138143;-70
2022/09/22 09:23:11;;;;;;;3.10;2.70;;;;;;;11.94;75.81;98967.13;104847;1284;138392;-70
2022/09/22 09:25:40;;;;;;;2.80;2.50;;;;;;;11.86;74.50;98965.69;105308;1284;22488;-71
2022/09/22 09:28:14;;;;;;;3.00;2.40;;;;;;;11.86;75.62;98961.52;105021;1284;24348;-70
2022/09/22 09:30:49;;;;;;;5.20;2.30;;;;;;;11.95;74.98;98959.35;104910;1285;137870;-70
2022/09/22 09:33:27;;;;;;;3.30;2.10;;;;;;;12.04;74.05;98963.66;104549;1284;138302;-69
2022/09/22 09:35:53;;;;;;;5.20;2.00;;;;;;;12.02;74.42;98966.30;104964;1284;27431;-72
2022/09/22 09:38:30;;;;;;;2.80;2.30;;;;;;;11.98;73.98;98958.61;104800;1284;138131;-70
2022/09/22 09:41:13;;;;;;;2.90;2.20;;;;;;;11.91;74.16;98960.60;105066;1284;25361;-72
2022/09/22 09:43:44;;;;;;;2.10;1.80;;;;;;;11.82;74.94;98962.20;104799;1284;140652;-70
2022/09/22 09:46:33;;;;;;;2.90;2.10;;;;;;;11.76;74.47;98965.20;105789;1285;24274;-69
2022/09/22 09:49:13;;;;;;;2.70;1.80;;;;;;;11.72;74.84;98964.98;105174;1279;138744;-69
2022/09/22 09:51:50;;;;;;;3.40;2.10;;;;;;;11.69;74.89;98965.86;105752;1276;22741;-70
2022/09/22 09:54:19;;;;;;;6.40;2.90;;;;;;;11.72;75.43;98965.66;106525;1276;25274;-71
2022/09/22 09:57:12;;;;;;;5.40;3.20;;;;;;;11.77;75.74;98962.65;106111;1277;138193;-70
2022/09/22 10:02:32;;;;;;;2.20;1.80;;;;;;;12.09;76.11;98963.34;106365;1277;137995;-69
2022/09/22 10:05:18;;;;;;;3.90;1.70;;;;;;;12.17;74.47;98954.10;106167;1277;25277;-70
2022/09/22 10:07:54;;;;;;;2.00;1.70;;;;;;;12.25;74.51;98960.27;106878;1276;138770;-70
2022/09/22 10:10:28;;;;;;;4.20;1.80;;;;;;;12.34;73.22;98959.02;106110;1276;22753;-70
2022/09/22 10:13:34;;;;;;;3.10;1.50;;;;;;;12.49;73.74;98958.75;106349;1276;138155;-70
2022/09/22 10:16:06;;;;;;;1.70;1.40;;;;;;;12.92;73.52;98955.02;107078;1276;23475;-70
2022/09/22 10:18:39;;;;;;;2.30;1.20;;;;;;;13.23;70.89;98952.45;105681;1277;22612;-69
2022/09/22 10:21:14;;;;;;;5.20;1.80;;;;;;;13.55;71.22;98955.45;105859;1277;24304;-69
2022/09/22 10:23:47;;;;;;;3.70;2.20;;;;;;;13.81;70.95;98946.89;106230;1277;22861;-70
2022/09/22 10:26:19;;;;;;;3.70;2.20;;;;;;;13.90;70.03;98947.92;105493;1277;137963;-69
2022/09/22 10:29:05;;;;;;;8.60;2.90;;;;;;;13.88;69.38;98947.13;105920;1277;25501;-69
2022/09/22 10:31:31;;;;;;;3.30;2.40;;;;;;;13.81;69.84;98946.06;105387;1279;138453;-69
2022/09/22 10:33:59;;;;;;;5.50;2.70;;;;;;;13.70;70.35;98946.46;105848;1277;22624;-69
2022/09/22 10:36:27;;;;;;;3.50;3.20;;;;;;;13.58;70.15;98950.23;105801;1276;26536;-69
2022/09/22 10:38:54;;;;;;;5.70;2.90;;;;;;;13.43;69.94;98948.88;105729;1276;137820;-69
2022/09/22 10:41:26;;;;;;;4.90;2.30;;;;;;;13.23;69.78;98951.35;105615;1277;25295;-69
2022/09/22 10:44:19;;;;;;;5.50;2.80;;;;;;;13.06;70.75;98955.46;105542;1277;138091;-70
2022/09/22 10:47:05;;;;;;;3.50;2.40;;;;;;;12.97;72.00;98960.72;105675;1277;24397;-70
2022/09/22 10:49:57;;;;;;;3.00;1.80;;;;;;;12.90;73.29;98957.65;106448;1276;137932;-70
2022/09/22 10:52:34;;;;;;;2.10;1.80;;;;;;;12.79;73.28;98958.40;106566;1276;25390;-70
2022/09/22 10:55:18;;;;;;;3.20;1.90;;;;;;;12.73;73.51;98952.08;106032;1279;138151;-71
2022/09/22 10:58:06;;;;;;;2.60;1.90;;;;;;;12.69;74.03;98953.20;106083;1276;25276;-70
2022/09/22 11:00:34;;;;;;;1.80;1.70;;;;;;;12.66;74.83;98954.90;106037;1277;24680;-70
2022/09/22 11:03:31;;;;;;;3.40;2.30;;;;;;;12.64;75.82;98954.60;105903;1277;26638;-71
2022/09/22 11:12:18;;;;;;;3.70;2.00;;;;;;;12.63;76.93;98951.67;106092;1277;23526;-70
2022/09/22 11:15:03;;;;;;;4.70;2.80;;;;;;;12.61;77.42;98951.32;106089;1277;137837;-69
2022/09/22 11:17:52;;;;;;;2.90;2.60;;;;;;;12.56;78.07;98946.84;106530;1276;24286;-70
2022/09/22 11:20:35;;;;;;;3.20;1.70;;;;;;;12.46;77.37;98942.03;106007;1277;138092;-70
2022/09/22 11:23:23;;;;;;;4.00;2.00;;;;;;;12.34;76.59;98943.95;106155;1278;25266;-69
2022/09/22 11:26:08;;;;;;;2.70;2.20;;;;;;;12.24;75.96;98938.67;105880;1277;137931;-72
2022/09/22 11:28:52;;;;;;;2.30;1.60;;;;;;;12.14;76.73;98936.20;107180;1276;374063;-70
2022/09/22 11:31:29;;;;;;;2.80;1.70;;;;;;;12.16;77.29;98934.63;106131;1276;139204;-71
2022/09/22 11:34:27;;;;;;;3.60;2.10;;;;;;;12.31;77.98;98938.47;106022;1277;24391;-72
2022/09/22 11:37:25;;;;;;;3.80;2.70;;;;;;;12.58;77.65;98936.00;105904;1277;138249;-70
2022/09/22 11:40:01;;;;;;;3.20;2.30;;;;;;;12.60;76.34;98931.23;106308;1277;22656;-69
2022/09/22 11:42:34;;;;;;;5.30;2.30;;;;;;;12.55;76.45;98933.45;106374;1277;24381;-70
2022/09/22 11:45:20;;;;;;;2.80;2.20;;;;;;;12.61;76.79;98932.56;106264;1277;137752;-70
2022/09/22 11:47:53;;;;;;;3.00;1.70;;;;;;;12.54;76.36;98928.52;106192;1277;22706;-70
2022/09/22 11:50:38;;;;;;;2.80;1.70;;;;;;;12.41;76.63;98930.35;105815;1277;138874;-69
2022/09/22 11:53:20;;;;;;;2.50;1.80;;;;;;;12.19;76.84;98934.64;106294;1277;22592;-70
2022/09/22 11:55:49;;;;;;;2.40;2.20;;;;;;;12.01;78.11;98929.33;105904;1277;140272;-71